sensor_id;sensor_type;location;lat;lon;timestamp;temperature;humidity
42019;DHT22;27703;51.980;5.848;2022-10-15T00:00:45;12.60;99.90
42019;DHT22;27703;51.980;5.848;2022-10-15T00:03:10;12.60;99.90
42019;DHT22;27703;51.980;5.848;2022-10-15T00:05:37;12.70;99.90
42019;DHT22;27703;51.980;5.848;2022-10-15T00:08:03;12.70;99.90
42019;DHT22;27703;51.980;5.848;2022-10-15T00:10:29;12.60;99.90
42019;DHT22;27703;51.980;5.848;2022-10-15T00:12:55;12.60;99.90
42019;DHT22;27703;51.980;5.848;2022-10-15T00:15:20;12.60;99.90
42019;DHT22;27703;51.980;5.848;2022-10-15T00:17:46;12.70;99.90
42019;DHT22;27703;51.980;5.848;2022-10-15T00:20:11;12.60;99.90
42019;DHT22;27703;51.980;5.848;2022-10-15T00:22:37;12.60;99.90
42019;DHT22;27703;51.980;5.848;2022-10-15T00:25:03;12.70;99.90
42019;DHT22;27703;51.980;5.848;2022-10-15T00:27:29;12.60;99.90
42019;DHT22;27703;51.980;5.848;2022-10-15T00:29:54;12.60;99.90
42019;DHT22;27703;51.980;5.848;2022-10-15T00:32:20;12.60;99.90
42019;DHT22;27703;51.980;5.848;2022-10-15T00:34:45;12.60;99.90
42019;DHT22;27703;51.980;5.848;2022-10-15T00:37:11;12.60;99.90
42019;DHT22;27703;51.980;5.848;2022-10-15T00:39:37;12.50;99.90
42019;DHT22;27703;51.980;5.848;2022-10-15T00:42:02;12.50;99.90
42019;DHT22;27703;51.980;5.848;2022-10-15T00:47:02;12.50;99.90
42019;DHT22;27703;51.980;5.848;2022-10-15T00:49:38;12.50;99.90
42019;DHT22;27703;51.980;5.848;2022-10-15T00:52:07;12.50;99.90
42019;DHT22;27703;51.980;5.848;2022-10-15T00:54:40;12.40;99.90
42019;DHT22;27703;51.980;5.848;2022-10-15T00:57:07;12.40;99.90
42019;DHT22;27703;51.980;5.848;2022-10-15T00:59:36;12.40;99.90
42019;DHT22;27703;51.980;5.848;2022-10-15T01:02:03;12.40;99.90
42019;DHT22;27703;51.980;5.848;2022-10-15T01:04:30;12.40;99.90
42019;DHT22;27703;51.980;5.848;2022-10-15T01:06:56;12.40;99.90
42019;DHT22;27703;51.980;5.848;2022-10-15T01:09:21;12.40;99.90
42019;DHT22;27703;51.980;5.848;2022-10-15T01:11:51;12.40;99.90
42019;DHT22;27703;51.980;5.848;2022-10-15T01:16:48;12.40;99.90
42019;DHT22;27703;51.980;5.848;2022-10-15T01:22:56;12.40;99.90
42019;DHT22;27703;51.980;5.848;2022-10-15T01:27:54;12.40;99.90
42019;DHT22;27703;51.980;5.848;2022-10-15T01:30:43;12.40;99.90
42019;DHT22;27703;51.980;5.848;2022-10-15T01:38:47;12.50;99.90
42019;DHT22;27703;51.980;5.848;2022-10-15T01:41:28;12.50;99.90
42019;DHT22;27703;51.980;5.848;2022-10-15T01:44:00;12.50;99.90
42019;DHT22;27703;51.980;5.848;2022-10-15T01:49:07;12.50;99.90
42019;DHT22;27703;51.980;5.848;2022-10-15T01:51:35;12.50;99.90
42019;DHT22;27703;51.980;5.848;2022-10-15T01:54:04;12.60;99.90
42019;DHT22;27703;51.980;5.848;2022-10-15T01:56:32;12.60;99.90
42019;DHT22;27703;51.980;5.848;2022-10-15T01:58:59;12.60;99.90
42019;DHT22;27703;51.980;5.848;2022-10-15T02:01:25;12.60;99.90
42019;DHT22;27703;51.980;5.848;2022-10-15T02:03:52;12.60;99.90
42019;DHT22;27703;51.980;5.848;2022-10-15T02:06:31;12.60;99.90
42019;DHT22;27703;51.980;5.848;2022-10-15T02:09:37;12.60;99.90
42019;DHT22;27703;51.980;5.848;2022-10-15T02:15:34;12.70;99.90
42019;DHT22;27703;51.980;5.848;2022-10-15T02:18:56;12.60;99.90
42019;DHT22;27703;51.980;5.848;2022-10-15T02:21:19;12.70;99.90
42019;DHT22;27703;51.980;5.848;2022-10-15T02:26:14;12.70;99.90
42019;DHT22;27703;51.980;5.848;2022-10-15T02:28:42;12.70;99.90
42019;DHT22;27703;51.980;5.848;2022-10-15T02:31:11;12.70;99.90
42019;DHT22;27703;51.980;5.848;2022-10-15T02:33:38;12.70;99.90
42019;DHT22;27703;51.980;5.848;2022-10-15T02:36:04;12.70;99.90
42019;DHT22;27703;51.980;5.848;2022-10-15T02:38:31;12.70;99.90
42019;DHT22;27703;51.980;5.848;2022-10-15T02:40:57;12.70;99.90
42019;DHT22;27703;51.980;5.848;2022-10-15T02:43:23;12.60;99.90
42019;DHT22;27703;51.980;5.848;2022-10-15T02:45:48;12.60;99.90
42019;DHT22;27703;51.980;5.848;2022-10-15T02:48:14;12.60;99.90
42019;DHT22;27703;51.980;5.848;2022-10-15T02:50:40;12.60;99.90
42019;DHT22;27703;51.980;5.848;2022-10-15T02:53:06;12.60;99.90
42019;DHT22;27703;51.980;5.848;2022-10-15T02:55:31;12.60;99.90
42019;DHT22;27703;51.980;5.848;2022-10-15T02:57:57;12.60;99.90
42019;DHT22;27703;51.980;5.848;2022-10-15T03:00:22;12.60;99.90
42019;DHT22;27703;51.980;5.848;2022-10-15T03:02:48;12.50;99.90
42019;DHT22;27703;51.980;5.848;2022-10-15T03:05:14;12.60;99.90
42019;DHT22;27703;51.980;5.848;2022-10-15T03:07:39;12.50;99.90
42019;DHT22;27703;51.980;5.848;2022-10-15T03:10:05;12.50;99.90
42019;DHT22;27703;51.980;5.848;2022-10-15T03:12:31;12.50;99.90
42019;DHT22;27703;51.980;5.848;2022-10-15T03:14:57;12.60;99.90
42019;DHT22;27703;51.980;5.848;2022-10-15T03:17:22;12.60;99.90
42019;DHT22;27703;51.980;5.848;2022-10-15T03:19:48;12.60;99.90
42019;DHT22;27703;51.980;5.848;2022-10-15T03:22:13;12.60;99.90
42019;DHT22;27703;51.980;5.848;2022-10-15T03:24:39;12.60;99.90
42019;DHT22;27703;51.980;5.848;2022-10-15T03:27:04;12.60;99.90
42019;DHT22;27703;51.980;5.848;2022-10-15T03:29:30;12.70;99.90
42019;DHT22;27703;51.980;5.848;2022-10-15T03:31:55;12.70;99.90
42019;DHT22;27703;51.980;5.848;2022-10-15T03:34:21;12.70;99.90
42019;DHT22;27703;51.980;5.848;2022-10-15T03:36:47;12.60;99.90
42019;DHT22;27703;51.980;5.848;2022-10-15T03:39:13;12.60;99.90
42019;DHT22;27703;51.980;5.848;2022-10-15T03:41:39;12.60;99.90
42019;DHT22;27703;51.980;5.848;2022-10-15T03:44:06;12.70;99.90
42019;DHT22;27703;51.980;5.848;2022-10-15T03:46:32;12.70;99.90
42019;DHT22;27703;51.980;5.848;2022-10-15T03:48:57;12.70;99.90
42019;DHT22;27703;51.980;5.848;2022-10-15T03:51:23;12.70;99.90
42019;DHT22;27703;51.980;5.848;2022-10-15T03:53:49;12.70;99.90
42019;DHT22;27703;51.980;5.848;2022-10-15T03:56:14;12.70;99.90
42019;DHT22;27703;51.980;5.848;2022-10-15T03:58:40;12.70;99.90
42019;DHT22;27703;51.980;5.848;2022-10-15T04:01:14;12.70;99.90
42019;DHT22;27703;51.980;5.848;2022-10-15T04:03:40;12.70;99.90
42019;DHT22;27703;51.980;5.848;2022-10-15T04:06:06;12.80;99.90
42019;DHT22;27703;51.980;5.848;2022-10-15T04:08:32;12.70;99.90
42019;DHT22;27703;51.980;5.848;2022-10-15T04:10:57;12.70;99.90
42019;DHT22;27703;51.980;5.848;2022-10-15T04:13:27;12.70;99.90
42019;DHT22;27703;51.980;5.848;2022-10-15T04:15:53;12.70;99.90
42019;DHT22;27703;51.980;5.848;2022-10-15T04:18:18;12.70;99.90
42019;DHT22;27703;51.980;5.848;2022-10-15T04:20:48;12.70;99.90
42019;DHT22;27703;51.980;5.848;2022-10-15T04:23:15;12.70;99.90
42019;DHT22;27703;51.980;5.848;2022-10-15T04:25:40;12.70;99.90
42019;DHT22;27703;51.980;5.848;2022-10-15T04:28:07;12.70;99.90
42019;DHT22;27703;51.980;5.848;2022-10-15T04:30:32;12.70;99.90
42019;DHT22;27703;51.980;5.848;2022-10-15T04:32:58;12.70;99.90
42019;DHT22;27703;51.980;5.848;2022-10-15T04:35:23;12.70;99.90
42019;DHT22;27703;51.980;5.848;2022-10-15T04:37:49;12.70;99.90
42019;DHT22;27703;51.980;5.848;2022-10-15T04:40:15;12.70;99.90
42019;DHT22;27703;51.980;5.848;2022-10-15T04:42:40;12.70;99.90
42019;DHT22;27703;51.980;5.848;2022-10-15T04:45:06;12.70;99.90
42019;DHT22;27703;51.980;5.848;2022-10-15T04:47:32;12.80;99.90
42019;DHT22;27703;51.980;5.848;2022-10-15T04:49:58;12.80;99.90
42019;DHT22;27703;51.980;5.848;2022-10-15T04:52:23;12.80;99.90
42019;DHT22;27703;51.980;5.848;2022-10-15T04:54:49;12.80;99.90
42019;DHT22;27703;51.980;5.848;2022-10-15T04:57:15;12.80;99.90
42019;DHT22;27703;51.980;5.848;2022-10-15T04:59:40;12.80;99.90
42019;DHT22;27703;51.980;5.848;2022-10-15T05:02:08;12.80;99.90
42019;DHT22;27703;51.980;5.848;2022-10-15T05:04:33;12.80;99.90
42019;DHT22;27703;51.980;5.848;2022-10-15T05:06:59;12.80;99.90
42019;DHT22;27703;51.980;5.848;2022-10-15T05:09:24;12.80;99.90
42019;DHT22;27703;51.980;5.848;2022-10-15T05:11:50;12.80;99.90
42019;DHT22;27703;51.980;5.848;2022-10-15T05:14:15;12.80;99.90
42019;DHT22;27703;51.980;5.848;2022-10-15T05:16:41;12.80;99.90
42019;DHT22;27703;51.980;5.848;2022-10-15T05:19:07;12.80;99.90
42019;DHT22;27703;51.980;5.848;2022-10-15T05:21:34;12.80;99.90
42019;DHT22;27703;51.980;5.848;2022-10-15T05:24:00;12.80;99.90
42019;DHT22;27703;51.980;5.848;2022-10-15T05:26:27;12.80;99.90
42019;DHT22;27703;51.980;5.848;2022-10-15T05:28:55;12.80;99.90
42019;DHT22;27703;51.980;5.848;2022-10-15T05:31:22;12.80;99.90
42019;DHT22;27703;51.980;5.848;2022-10-15T05:33:49;12.80;99.90
42019;DHT22;27703;51.980;5.848;2022-10-15T05:38:47;12.80;99.90
42019;DHT22;27703;51.980;5.848;2022-10-15T05:41:12;12.80;99.90
42019;DHT22;27703;51.980;5.848;2022-10-15T05:43:39;12.90;99.90
42019;DHT22;27703;51.980;5.848;2022-10-15T05:46:05;12.90;99.90
42019;DHT22;27703;51.980;5.848;2022-10-15T05:48:31;12.90;99.90
42019;DHT22;27703;51.980;5.848;2022-10-15T05:51:04;12.90;99.90
42019;DHT22;27703;51.980;5.848;2022-10-15T05:53:30;12.90;99.90
42019;DHT22;27703;51.980;5.848;2022-10-15T05:55:56;12.90;99.90
42019;DHT22;27703;51.980;5.848;2022-10-15T05:58:26;12.90;99.90
42019;DHT22;27703;51.980;5.848;2022-10-15T06:00:57;12.90;99.90
42019;DHT22;27703;51.980;5.848;2022-10-15T06:03:23;13.00;99.90
42019;DHT22;27703;51.980;5.848;2022-10-15T06:05:49;13.00;99.90
42019;DHT22;27703;51.980;5.848;2022-10-15T06:08:15;13.00;99.90
42019;DHT22;27703;51.980;5.848;2022-10-15T06:10:40;13.00;99.90
42019;DHT22;27703;51.980;5.848;2022-10-15T06:13:06;13.00;99.90
42019;DHT22;27703;51.980;5.848;2022-10-15T06:15:32;13.00;99.90
42019;DHT22;27703;51.980;5.848;2022-10-15T06:17:59;13.00;99.90
42019;DHT22;27703;51.980;5.848;2022-10-15T06:20:25;13.00;99.90
42019;DHT22;27703;51.980;5.848;2022-10-15T06:22:54;13.00;99.90
42019;DHT22;27703;51.980;5.848;2022-10-15T06:25:20;13.10;99.90
42019;DHT22;27703;51.980;5.848;2022-10-15T06:27:46;13.10;99.90
42019;DHT22;27703;51.980;5.848;2022-10-15T06:30:11;13.10;99.90
42019;DHT22;27703;51.980;5.848;2022-10-15T06:32:37;13.10;99.90
42019;DHT22;27703;51.980;5.848;2022-10-15T06:35:02;13.10;99.90
42019;DHT22;27703;51.980;5.848;2022-10-15T06:37:28;13.10;99.90
42019;DHT22;27703;51.980;5.848;2022-10-15T06:39:54;13.20;99.90
42019;DHT22;27703;51.980;5.848;2022-10-15T06:42:19;13.10;99.90
42019;DHT22;27703;51.980;5.848;2022-10-15T06:44:45;13.10;99.90
42019;DHT22;27703;51.980;5.848;2022-10-15T06:47:10;13.20;99.90
42019;DHT22;27703;51.980;5.848;2022-10-15T06:49:36;13.20;99.90
42019;DHT22;27703;51.980;5.848;2022-10-15T06:52:01;13.20;99.90
42019;DHT22;27703;51.980;5.848;2022-10-15T06:54:27;13.20;99.90
42019;DHT22;27703;51.980;5.848;2022-10-15T06:56:52;13.20;99.90
42019;DHT22;27703;51.980;5.848;2022-10-15T06:59:18;13.20;99.90
42019;DHT22;27703;51.980;5.848;2022-10-15T07:01:43;13.20;99.90
42019;DHT22;27703;51.980;5.848;2022-10-15T07:04:09;13.30;99.90
42019;DHT22;27703;51.980;5.848;2022-10-15T07:06:35;13.30;99.90
42019;DHT22;27703;51.980;5.848;2022-10-15T07:09:01;13.30;99.90
42019;DHT22;27703;51.980;5.848;2022-10-15T07:11:27;13.30;99.90
42019;DHT22;27703;51.980;5.848;2022-10-15T07:13:53;13.30;99.90
42019;DHT22;27703;51.980;5.848;2022-10-15T07:16:18;13.30;99.90
42019;DHT22;27703;51.980;5.848;2022-10-15T07:18:47;13.40;99.90
42019;DHT22;27703;51.980;5.848;2022-10-15T07:21:13;13.40;99.90
42019;DHT22;27703;51.980;5.848;2022-10-15T07:23:38;13.40;99.90
42019;DHT22;27703;51.980;5.848;2022-10-15T07:26:04;13.40;99.90
42019;DHT22;27703;51.980;5.848;2022-10-15T07:28:29;13.40;99.90
42019;DHT22;27703;51.980;5.848;2022-10-15T07:31:00;13.40;99.90
42019;DHT22;27703;51.980;5.848;2022-10-15T07:33:26;13.40;99.90
42019;DHT22;27703;51.980;5.848;2022-10-15T07:35:51;13.50;99.90
42019;DHT22;27703;51.980;5.848;2022-10-15T07:38:17;13.50;99.90
42019;DHT22;27703;51.980;5.848;2022-10-15T07:40:43;13.50;99.90
42019;DHT22;27703;51.980;5.848;2022-10-15T07:43:09;13.50;99.90
42019;DHT22;27703;51.980;5.848;2022-10-15T07:45:34;13.50;99.90
42019;DHT22;27703;51.980;5.848;2022-10-15T07:48:00;13.50;99.90
42019;DHT22;27703;51.980;5.848;2022-10-15T07:50:26;13.60;99.90
42019;DHT22;27703;51.980;5.848;2022-10-15T07:52:51;13.60;99.90
42019;DHT22;27703;51.980;5.848;2022-10-15T07:55:17;13.60;99.90
42019;DHT22;27703;51.980;5.848;2022-10-15T07:57:42;13.60;99.90
42019;DHT22;27703;51.980;5.848;2022-10-15T08:00:08;13.60;99.90
42019;DHT22;27703;51.980;5.848;2022-10-15T08:02:34;13.60;99.90
42019;DHT22;27703;51.980;5.848;2022-10-15T08:04:59;13.70;99.90
42019;DHT22;27703;51.980;5.848;2022-10-15T08:07:25;13.70;99.90
42019;DHT22;27703;51.980;5.848;2022-10-15T08:09:50;13.80;99.90
42019;DHT22;27703;51.980;5.848;2022-10-15T08:12:16;13.80;99.90
42019;DHT22;27703;51.980;5.848;2022-10-15T08:14:42;13.90;99.90
42019;DHT22;27703;51.980;5.848;2022-10-15T08:17:07;13.90;99.90
42019;DHT22;27703;51.980;5.848;2022-10-15T08:19:33;14.00;99.90
42019;DHT22;27703;51.980;5.848;2022-10-15T08:21:59;14.10;99.90
42019;DHT22;27703;51.980;5.848;2022-10-15T08:24:25;14.10;99.90
42019;DHT22;27703;51.980;5.848;2022-10-15T08:26:50;14.20;99.90
42019;DHT22;27703;51.980;5.848;2022-10-15T08:29:16;14.20;99.90
42019;DHT22;27703;51.980;5.848;2022-10-15T08:31:42;14.30;99.90
42019;DHT22;27703;51.980;5.848;2022-10-15T08:34:07;14.40;99.90
42019;DHT22;27703;51.980;5.848;2022-10-15T08:36:33;14.60;99.90
42019;DHT22;27703;51.980;5.848;2022-10-15T08:38:59;14.70;99.90
42019;DHT22;27703;51.980;5.848;2022-10-15T08:41:29;14.90;99.90
42019;DHT22;27703;51.980;5.848;2022-10-15T08:43:57;14.90;99.90
42019;DHT22;27703;51.980;5.848;2022-10-15T08:46:30;15.00;99.90
42019;DHT22;27703;51.980;5.848;2022-10-15T08:48:58;15.00;99.90
42019;DHT22;27703;51.980;5.848;2022-10-15T08:51:50;15.00;99.90
42019;DHT22;27703;51.980;5.848;2022-10-15T08:54:19;15.00;99.90
42019;DHT22;27703;51.980;5.848;2022-10-15T08:56:54;15.10;99.90
42019;DHT22;27703;51.980;5.848;2022-10-15T09:00:00;15.10;99.90
42019;DHT22;27703;51.980;5.848;2022-10-15T09:05:45;15.40;99.90
42019;DHT22;27703;51.980;5.848;2022-10-15T09:08:48;15.50;99.90
42019;DHT22;27703;51.980;5.848;2022-10-15T09:14:02;15.50;99.90
42019;DHT22;27703;51.980;5.848;2022-10-15T09:16:32;15.40;99.90
42019;DHT22;27703;51.980;5.848;2022-10-15T09:19:02;15.40;99.90
42019;DHT22;27703;51.980;5.848;2022-10-15T09:21:29;15.40;99.90
42019;DHT22;27703;51.980;5.848;2022-10-15T09:24:00;15.40;99.90
42019;DHT22;27703;51.980;5.848;2022-10-15T09:26:26;15.40;99.90
42019;DHT22;27703;51.980;5.848;2022-10-15T09:32:19;15.30;99.90
42019;DHT22;27703;51.980;5.848;2022-10-15T09:34:52;15.30;99.90
42019;DHT22;27703;51.980;5.848;2022-10-15T09:37:26;15.30;99.90
42019;DHT22;27703;51.980;5.848;2022-10-15T09:42:46;15.40;99.90
42019;DHT22;27703;51.980;5.848;2022-10-15T09:45:15;15.40;99.90
42019;DHT22;27703;51.980;5.848;2022-10-15T09:47:42;15.40;99.90
42019;DHT22;27703;51.980;5.848;2022-10-15T09:50:10;15.50;99.90
42019;DHT22;27703;51.980;5.848;2022-10-15T09:55:25;15.50;99.90
42019;DHT22;27703;51.980;5.848;2022-10-15T09:57:56;15.50;99.90
42019;DHT22;27703;51.980;5.848;2022-10-15T10:00:23;15.50;99.90
42019;DHT22;27703;51.980;5.848;2022-10-15T10:03:09;15.50;99.90
42019;DHT22;27703;51.980;5.848;2022-10-15T10:05:38;15.50;99.90
42019;DHT22;27703;51.980;5.848;2022-10-15T10:08:13;15.40;99.90
42019;DHT22;27703;51.980;5.848;2022-10-15T10:10:43;15.40;99.90
42019;DHT22;27703;51.980;5.848;2022-10-15T10:13:22;15.40;99.90
42019;DHT22;27703;51.980;5.848;2022-10-15T10:15:52;15.40;99.90
42019;DHT22;27703;51.980;5.848;2022-10-15T10:18:21;15.40;99.90
42019;DHT22;27703;51.980;5.848;2022-10-15T10:21:23;15.30;99.90
42019;DHT22;27703;51.980;5.848;2022-10-15T10:23:48;15.30;99.90
42019;DHT22;27703;51.980;5.848;2022-10-15T10:26:14;15.30;99.90
42019;DHT22;27703;51.980;5.848;2022-10-15T10:28:48;15.30;99.90
42019;DHT22;27703;51.980;5.848;2022-10-15T10:31:14;15.20;99.90
42019;DHT22;27703;51.980;5.848;2022-10-15T10:33:47;15.20;99.90
42019;DHT22;27703;51.980;5.848;2022-10-15T10:36:26;15.20;99.90
42019;DHT22;27703;51.980;5.848;2022-10-15T10:44:25;15.20;99.90
42019;DHT22;27703;51.980;5.848;2022-10-15T10:49:31;15.20;99.90
42019;DHT22;27703;51.980;5.848;2022-10-15T10:51:57;15.20;99.90
42019;DHT22;27703;51.980;5.848;2022-10-15T10:54:24;15.10;99.90
42019;DHT22;27703;51.980;5.848;2022-10-15T10:56:50;15.20;99.90
42019;DHT22;27703;51.980;5.848;2022-10-15T10:59:32;15.20;99.90
42019;DHT22;27703;51.980;5.848;2022-10-15T11:02:00;15.20;99.90
42019;DHT22;27703;51.980;5.848;2022-10-15T11:04:32;15.20;99.90
42019;DHT22;27703;51.980;5.848;2022-10-15T11:07:02;15.10;99.90
42019;DHT22;27703;51.980;5.848;2022-10-15T11:09:42;15.10;99.90
42019;DHT22;27703;51.980;5.848;2022-10-15T11:12:29;15.20;99.90
42019;DHT22;27703;51.980;5.848;2022-10-15T11:24:05;15.20;99.90
42019;DHT22;27703;51.980;5.848;2022-10-15T11:34:24;15.20;99.90
42019;DHT22;27703;51.980;5.848;2022-10-15T11:37:06;15.20;99.90
42019;DHT22;27703;51.980;5.848;2022-10-15T11:42:33;15.30;99.90
42019;DHT22;27703;51.980;5.848;2022-10-15T11:50:33;15.40;99.90
42019;DHT22;27703;51.980;5.848;2022-10-15T11:56:10;15.40;99.90
42019;DHT22;27703;51.980;5.848;2022-10-15T11:59:09;15.40;99.90
42019;DHT22;27703;51.980;5.848;2022-10-15T12:01:50;15.50;99.90
42019;DHT22;27703;51.980;5.848;2022-10-15T12:04:28;15.50;99.90
42019;DHT22;27703;51.980;5.848;2022-10-15T12:06:56;15.50;99.90
42019;DHT22;27703;51.980;5.848;2022-10-15T12:09:29;15.50;99.90
42019;DHT22;27703;51.980;5.848;2022-10-15T12:14:33;15.50;99.90
42019;DHT22;27703;51.980;5.848;2022-10-15T12:20:06;15.50;99.90
42019;DHT22;27703;51.980;5.848;2022-10-15T12:22:42;15.60;99.90
42019;DHT22;27703;51.980;5.848;2022-10-15T12:28:03;15.60;99.90
42019;DHT22;27703;51.980;5.848;2022-10-15T12:30:33;15.70;99.90
42019;DHT22;27703;51.980;5.848;2022-10-15T12:33:03;15.70;99.90
42019;DHT22;27703;51.980;5.848;2022-10-15T12:35:33;15.70;99.90
42019;DHT22;27703;51.980;5.848;2022-10-15T12:38:26;15.70;99.90
42019;DHT22;27703;51.980;5.848;2022-10-15T12:41:02;15.80;99.90
42019;DHT22;27703;51.980;5.848;2022-10-15T12:43:30;15.80;99.90
42019;DHT22;27703;51.980;5.848;2022-10-15T12:45:59;15.80;99.90
42019;DHT22;27703;51.980;5.848;2022-10-15T12:48:37;15.80;99.90
42019;DHT22;27703;51.980;5.848;2022-10-15T12:53:45;16.00;99.90
42019;DHT22;27703;51.980;5.848;2022-10-15T12:58:41;16.10;99.90
42019;DHT22;27703;51.980;5.848;2022-10-15T13:08:54;16.30;99.90
42019;DHT22;27703;51.980;5.848;2022-10-15T13:11:24;16.40;99.90
42019;DHT22;27703;51.980;5.848;2022-10-15T13:16:45;16.50;99.90
42019;DHT22;27703;51.980;5.848;2022-10-15T13:19:19;16.60;99.90
42019;DHT22;27703;51.980;5.848;2022-10-15T13:21:57;16.70;99.90
42019;DHT22;27703;51.980;5.848;2022-10-15T13:24:25;16.80;99.90
42019;DHT22;27703;51.980;5.848;2022-10-15T13:26:52;16.80;99.90
42019;DHT22;27703;51.980;5.848;2022-10-15T13:29:23;16.80;99.90
42019;DHT22;27703;51.980;5.848;2022-10-15T13:31:50;16.80;99.90
42019;DHT22;27703;51.980;5.848;2022-10-15T13:34:29;16.80;99.90
42019;DHT22;27703;51.980;5.848;2022-10-15T13:37:01;16.80;99.90
42019;DHT22;27703;51.980;5.848;2022-10-15T13:39:32;16.90;99.90
42019;DHT22;27703;51.980;5.848;2022-10-15T13:42:15;16.90;99.90
42019;DHT22;27703;51.980;5.848;2022-10-15T13:44:41;16.90;99.90
42019;DHT22;27703;51.980;5.848;2022-10-15T13:49:49;16.90;99.90
42019;DHT22;27703;51.980;5.848;2022-10-15T13:52:14;16.90;99.90
42019;DHT22;27703;51.980;5.848;2022-10-15T13:54:43;16.90;99.90
42019;DHT22;27703;51.980;5.848;2022-10-15T13:57:13;16.90;99.90
42019;DHT22;27703;51.980;5.848;2022-10-15T13:59:43;17.00;99.90
42019;DHT22;27703;51.980;5.848;2022-10-15T14:02:10;17.00;99.90
42019;DHT22;27703;51.980;5.848;2022-10-15T14:04:36;17.00;99.90
42019;DHT22;27703;51.980;5.848;2022-10-15T14:07:16;17.00;99.90
42019;DHT22;27703;51.980;5.848;2022-10-15T14:09:45;16.90;99.90
42019;DHT22;27703;51.980;5.848;2022-10-15T14:12:11;16.80;99.90
42019;DHT22;27703;51.980;5.848;2022-10-15T14:14:42;16.70;99.90
42019;DHT22;27703;51.980;5.848;2022-10-15T14:17:20;16.60;99.90
42019;DHT22;27703;51.980;5.848;2022-10-15T14:19:50;16.60;99.90
42019;DHT22;27703;51.980;5.848;2022-10-15T14:22:22;16.40;99.90
42019;DHT22;27703;51.980;5.848;2022-10-15T14:24:51;16.40;99.90
42019;DHT22;27703;51.980;5.848;2022-10-15T14:27:21;16.30;99.90
42019;DHT22;27703;51.980;5.848;2022-10-15T14:29:48;16.30;99.90
42019;DHT22;27703;51.980;5.848;2022-10-15T14:34:50;16.30;99.90
42019;DHT22;27703;51.980;5.848;2022-10-15T14:37:37;16.20;99.90
42019;DHT22;27703;51.980;5.848;2022-10-15T14:42:46;16.30;99.90
42019;DHT22;27703;51.980;5.848;2022-10-15T14:47:47;16.40;99.90
42019;DHT22;27703;51.980;5.848;2022-10-15T14:50:13;16.50;99.90
42019;DHT22;27703;51.980;5.848;2022-10-15T14:52:47;16.50;99.90
42019;DHT22;27703;51.980;5.848;2022-10-15T14:55:27;16.50;99.90
42019;DHT22;27703;51.980;5.848;2022-10-15T14:57:59;16.60;99.90
42019;DHT22;27703;51.980;5.848;2022-10-15T15:00:31;16.60;99.90
42019;DHT22;27703;51.980;5.848;2022-10-15T15:03:00;16.60;99.90
42019;DHT22;27703;51.980;5.848;2022-10-15T15:05:27;16.50;99.90
42019;DHT22;27703;51.980;5.848;2022-10-15T15:07:54;16.50;99.90
42019;DHT22;27703;51.980;5.848;2022-10-15T15:10:22;16.40;99.90
42019;DHT22;27703;51.980;5.848;2022-10-15T15:12:54;16.40;99.90
42019;DHT22;27703;51.980;5.848;2022-10-15T15:15:21;16.40;99.90
42019;DHT22;27703;51.980;5.848;2022-10-15T15:17:47;16.40;99.90
42019;DHT22;27703;51.980;5.848;2022-10-15T15:20:14;16.40;99.90
42019;DHT22;27703;51.980;5.848;2022-10-15T15:22:41;16.40;99.90
42019;DHT22;27703;51.980;5.848;2022-10-15T15:25:19;16.40;99.90
42019;DHT22;27703;51.980;5.848;2022-10-15T15:27:45;16.30;99.90
42019;DHT22;27703;51.980;5.848;2022-10-15T15:30:19;16.30;99.90
42019;DHT22;27703;51.980;5.848;2022-10-15T15:32:45;16.30;99.90
42019;DHT22;27703;51.980;5.848;2022-10-15T15:35:38;16.10;99.90
42019;DHT22;27703;51.980;5.848;2022-10-15T15:38:08;16.10;99.90
42019;DHT22;27703;51.980;5.848;2022-10-15T15:40:34;16.10;99.90
42019;DHT22;27703;51.980;5.848;2022-10-15T15:43:00;16.00;99.90
42019;DHT22;27703;51.980;5.848;2022-10-15T15:45:26;15.90;99.90
42019;DHT22;27703;51.980;5.848;2022-10-15T15:47:52;15.90;99.90
42019;DHT22;27703;51.980;5.848;2022-10-15T15:50:19;15.90;99.90
42019;DHT22;27703;51.980;5.848;2022-10-15T15:52:45;15.90;99.90
42019;DHT22;27703;51.980;5.848;2022-10-15T15:55:12;15.80;99.90
42019;DHT22;27703;51.980;5.848;2022-10-15T15:57:37;15.80;99.90
42019;DHT22;27703;51.980;5.848;2022-10-15T16:00:07;15.80;99.90
42019;DHT22;27703;51.980;5.848;2022-10-15T16:02:33;15.70;99.90
42019;DHT22;27703;51.980;5.848;2022-10-15T16:04:59;15.70;99.90
42019;DHT22;27703;51.980;5.848;2022-10-15T16:07:26;15.80;99.90
42019;DHT22;27703;51.980;5.848;2022-10-15T16:09:52;15.70;99.90
42019;DHT22;27703;51.980;5.848;2022-10-15T16:12:17;15.70;99.90
42019;DHT22;27703;51.980;5.848;2022-10-15T16:14:43;15.60;99.90
42019;DHT22;27703;51.980;5.848;2022-10-15T16:17:08;15.60;99.90
42019;DHT22;27703;51.980;5.848;2022-10-15T16:19:34;15.50;99.90
42019;DHT22;27703;51.980;5.848;2022-10-15T16:21:59;15.50;99.90
42019;DHT22;27703;51.980;5.848;2022-10-15T16:24:25;15.50;99.90
42019;DHT22;27703;51.980;5.848;2022-10-15T16:26:50;15.40;99.90
42019;DHT22;27703;51.980;5.848;2022-10-15T16:29:16;15.40;99.90
42019;DHT22;27703;51.980;5.848;2022-10-15T16:31:41;15.40;99.90
42019;DHT22;27703;51.980;5.848;2022-10-15T16:34:07;15.30;99.90
42019;DHT22;27703;51.980;5.848;2022-10-15T16:36:33;15.30;99.90
42019;DHT22;27703;51.980;5.848;2022-10-15T16:38:58;15.20;99.90
42019;DHT22;27703;51.980;5.848;2022-10-15T16:41:24;15.10;99.90
42019;DHT22;27703;51.980;5.848;2022-10-15T16:43:49;15.10;99.90
42019;DHT22;27703;51.980;5.848;2022-10-15T16:46:16;15.00;99.90
42019;DHT22;27703;51.980;5.848;2022-10-15T16:48:42;15.00;99.90
42019;DHT22;27703;51.980;5.848;2022-10-15T16:51:10;14.90;99.90
42019;DHT22;27703;51.980;5.848;2022-10-15T16:53:37;14.90;99.90
42019;DHT22;27703;51.980;5.848;2022-10-15T16:56:08;14.80;99.90
42019;DHT22;27703;51.980;5.848;2022-10-15T16:58:35;14.80;99.90
42019;DHT22;27703;51.980;5.848;2022-10-15T17:01:06;14.70;99.90
42019;DHT22;27703;51.980;5.848;2022-10-15T17:03:33;14.70;99.90
42019;DHT22;27703;51.980;5.848;2022-10-15T17:06:01;14.70;99.90
42019;DHT22;27703;51.980;5.848;2022-10-15T17:08:32;14.60;99.90
42019;DHT22;27703;51.980;5.848;2022-10-15T17:10:58;14.60;99.90
42019;DHT22;27703;51.980;5.848;2022-10-15T17:13:24;14.60;99.90
42019;DHT22;27703;51.980;5.848;2022-10-15T17:15:49;14.50;99.90
42019;DHT22;27703;51.980;5.848;2022-10-15T17:18:15;14.50;99.90
42019;DHT22;27703;51.980;5.848;2022-10-15T17:20:46;14.50;99.90
42019;DHT22;27703;51.980;5.848;2022-10-15T17:23:12;14.50;99.90
42019;DHT22;27703;51.980;5.848;2022-10-15T17:25:38;14.40;99.90
42019;DHT22;27703;51.980;5.848;2022-10-15T17:28:04;14.40;99.90
42019;DHT22;27703;51.980;5.848;2022-10-15T17:30:29;14.30;99.90
42019;DHT22;27703;51.980;5.848;2022-10-15T17:32:55;14.20;99.90